Honeyford, North Dakota
Current Conditions -  °F | °C
As of 12:58 PM on Thursday 27 Nov 2014 (Local Time) from KRDR Reporting Station
Clear Clear  
Wind Chill: -10°   Ceiling: Unl
Heat Index:   Visibility: 10mi
Dew Point: -5°   Wind: 13mph
Humidity: 60%   Direction: 190°S
Pressure: 30.37"   Gusts: NA
Location:  48.1078°N, 97.4492°W
Report Text: KRDR 271858Z AUTO 19011KT 10SM CLR M14/M21 A3037 RMK AO2 SNB1831E1850 SLP318 P0000 T11441206
Loading
Personal Weather Stations






























Interactive Weather Map New forecast layout! Learn more

10-Day Weather Forecast

Advertisements
Track Severe Weather on mobile